Osbornsville, New Jersey
Current Conditions -  °F | °C
As of 1:35 AM on Wednesday 26 Nov 2014 (Local Time) from KBLM Reporting Station
Overcast Overcast  
Wind Chill: 41°   Ceiling: 10000
Heat Index: 45°   Visibility: 10mi
Dew Point: 30°   Wind: 6mph
Humidity: 57%   Direction: 310°NW
Pressure: 30.17"   Gusts: NA
Location:  40.0399°N, 74.1255°W
Report Text: KBLM 260635Z AUTO 31005KT 10SM BKN100 OVC120 07/M01 A3017 RMK AO1
Loading
Personal Weather Stations






























Interactive Weather Map New forecast layout! Learn more

10-Day Weather Forecast

Advertisements
Track Severe Weather on mobile